Time;durP1;ratioP1;P1;durP2;ratioP2;P2;SDS_P1;SDS_P2;PMS_P1;PMS_P2;Temp;Humidity;BMP_temperature;BMP_pressure;BME280_temperature;BME280_humidity;BME280_pressure;Samples;Min_cycle;Max_cycle;Signal;HPM_P1;HPM_P2
2022/11/21 00:00:59;;;;;;;;;;;-0.10;99.90;;;;;;5048316;28;19929;-52
2022/11/21 00:03:25;;;;;;;;;;;-0.10;99.90;;;;;;5047963;28;19970;-50
2022/11/21 00:05:51;;;;;;;;;;;0.00;99.90;;;;;;5049075;28;19916;-51
2022/11/21 00:08:17;;;;;;;;;;;0.00;99.90;;;;;;5048815;28;19912;-50
2022/11/21 00:10:43;;;;;;;;;;;0.00;99.90;;;;;;5048893;28;20014;-51
2022/11/21 00:13:12;;;;;;;;;;;0.00;99.90;;;;;;5047880;28;19967;-53
2022/11/21 00:15:38;;;;;;;;;;;0.10;99.90;;;;;;5048971;28;20004;-49
2022/11/21 00:18:03;;;;;;;;;;;0.10;99.90;;;;;;5048978;28;20011;-51
2022/11/21 00:20:29;;;;;;;;;;;0.10;99.90;;;;;;5048889;28;19913;-54
2022/11/21 00:22:54;;;;;;;;;;;0.00;99.90;;;;;;5046529;28;19917;-52
2022/11/21 00:25:20;;;;;;;;;;;0.10;99.90;;;;;;5048855;28;19909;-52
2022/11/21 00:27:45;;;;;;;;;;;0.10;99.90;;;;;;5047912;28;20305;-52
2022/11/21 00:30:11;;;;;;;;;;;0.20;99.90;;;;;;5047897;28;19948;-51
2022/11/21 00:32:37;;;;;;;;;;;0.10;99.90;;;;;;5048030;28;20316;-51
2022/11/21 00:35:03;;;;;;;;;;;0.20;99.90;;;;;;5049354;28;19913;-51
2022/11/21 00:37:30;;;;;;;;;;;0.10;99.90;;;;;;5048681;28;19912;-50
2022/11/21 00:39:55;;;;;;;;;;;0.20;99.90;;;;;;5047780;28;19913;-52
2022/11/21 00:42:21;;;;;;;;;;;0.20;99.90;;;;;;5047361;28;20429;-51
2022/11/21 00:44:46;;;;;;;;;;;0.20;99.90;;;;;;5048624;28;19962;-51
2022/11/21 00:47:12;;;;;;;;;;;0.30;99.90;;;;;;5047076;28;19913;-51
2022/11/21 00:49:37;;;;;;;;;;;0.30;99.90;;;;;;5048650;28;20393;-59
2022/11/21 00:52:03;;;;;;;;;;;0.30;99.90;;;;;;5047592;28;19913;-50
2022/11/21 00:54:28;;;;;;;;;;;0.30;99.90;;;;;;5048592;28;20347;-53
2022/11/21 00:56:54;;;;;;;;;;;0.40;99.90;;;;;;5047534;28;19916;-50
2022/11/21 00:59:19;;;;;;;;;;;0.40;99.90;;;;;;5048455;28;20283;-50
2022/11/21 01:01:44;;;;;;;;;;;0.40;99.90;;;;;;5046930;28;19913;-52
2022/11/21 01:04:10;;;;;;;;;;;0.50;99.90;;;;;;5048530;28;19913;-54
2022/11/21 01:06:36;;;;;;;;;;;0.50;99.90;;;;;;5046237;28;19924;-56
2022/11/21 01:09:01;;;;;;;;;;;0.60;99.90;;;;;;5047958;28;20019;-49
2022/11/21 01:11:28;;;;;;;;;;;0.70;99.90;;;;;;5049851;28;19995;-52
2022/11/21 01:13:54;;;;;;;;;;;0.70;99.90;;;;;;5052260;28;19917;-48
2022/11/21 01:16:21;;;;;;;;;;;0.70;99.90;;;;;;5049624;28;20752;-48
2022/11/21 01:18:46;;;;;;;;;;;0.80;99.90;;;;;;5045301;28;19909;-51
2022/11/21 01:21:16;;;;;;;;;;;0.80;99.90;;;;;;5052095;28;19919;-48
2022/11/21 01:23:42;;;;;;;;;;;0.80;99.90;;;;;;5050707;28;19917;-50
2022/11/21 01:26:12;;;;;;;;;;;0.90;99.90;;;;;;5051066;28;19913;-49
2022/11/21 01:28:37;;;;;;;;;;;1.00;99.90;;;;;;5052057;28;19916;-49
2022/11/21 01:31:06;;;;;;;;;;;1.00;99.90;;;;;;5051900;28;20063;-51
2022/11/21 01:33:32;;;;;;;;;;;1.10;99.90;;;;;;5051898;28;20430;-48
2022/11/21 01:36:04;;;;;;;;;;;1.20;99.90;;;;;;5051086;28;19999;-51
2022/11/21 01:38:31;;;;;;;;;;;1.30;99.90;;;;;;5051725;28;20009;-52
2022/11/21 01:40:57;;;;;;;;;;;1.30;99.90;;;;;;5051798;28;19955;-49
2022/11/21 01:43:22;;;;;;;;;;;1.30;99.90;;;;;;5047646;28;19913;-51
2022/11/21 01:45:55;;;;;;;;;;;1.40;99.90;;;;;;5046750;28;20016;-52
2022/11/21 01:48:24;;;;;;;;;;;1.50;99.90;;;;;;5046099;28;19913;-53
2022/11/21 01:50:50;;;;;;;;;;;1.50;99.90;;;;;;5050638;28;19913;-50
2022/11/21 01:53:16;;;;;;;;;;;1.60;99.90;;;;;;5049899;28;20420;-57
2022/11/21 01:55:41;;;;;;;;;;;1.60;99.90;;;;;;5050845;28;19921;-53
2022/11/21 01:58:08;;;;;;;;;;;1.70;99.90;;;;;;5051533;28;20405;-53
2022/11/21 02:00:36;;;;;;;;;;;1.60;99.90;;;;;;5051155;28;20278;-50
2022/11/21 02:03:05;;;;;;;;;;;1.70;99.90;;;;;;5051280;28;19991;-50
2022/11/21 02:05:32;;;;;;;;;;;1.70;99.90;;;;;;5050248;28;20267;-51
2022/11/21 02:07:59;;;;;;;;;;;1.70;99.90;;;;;;5051090;28;19915;-52
2022/11/21 02:10:24;;;;;;;;;;;1.70;99.90;;;;;;5051226;28;19983;-48
2022/11/21 02:12:50;;;;;;;;;;;1.70;99.90;;;;;;5051049;28;19932;-48
2022/11/21 02:15:16;;;;;;;;;;;1.80;99.90;;;;;;5049866;28;19912;-55
2022/11/21 02:17:42;;;;;;;;;;;1.80;99.90;;;;;;5050980;28;20386;-52
2022/11/21 02:20:12;;;;;;;;;;;1.80;99.90;;;;;;5051033;28;20006;-51
2022/11/21 02:22:43;;;;;;;;;;;1.80;99.90;;;;;;5050370;28;19909;-57
2022/11/21 02:25:14;;;;;;;;;;;1.90;99.90;;;;;;5065720;28;19908;-48
2022/11/21 02:27:40;;;;;;;;;;;1.90;99.90;;;;;;5050638;28;20668;-49
2022/11/21 02:30:06;;;;;;;;;;;2.00;99.90;;;;;;5050695;28;20007;-50
2022/11/21 02:32:39;;;;;;;;;;;2.00;99.90;;;;;;5050353;28;20389;-48
2022/11/21 02:35:05;;;;;;;;;;;2.00;99.90;;;;;;5049719;28;19924;-53
2022/11/21 02:37:32;;;;;;;;;;;2.10;99.90;;;;;;5050557;28;19932;-51
2022/11/21 02:39:59;;;;;;;;;;;2.10;99.90;;;;;;5050609;28;19947;-51
2022/11/21 02:42:43;;;;;;;;;;;2.10;99.90;;;;;;5049985;28;19917;-50
2022/11/21 02:45:20;;;;;;;;;;;2.10;99.90;;;;;;5048728;28;19920;-54
2022/11/21 02:47:49;;;;;;;;;;;2.00;99.90;;;;;;5050229;28;20363;-48
2022/11/21 02:50:28;;;;;;;;;;;2.10;99.90;;;;;;5050938;28;19916;-51
2022/11/21 02:52:54;;;;;;;;;;;2.00;99.90;;;;;;5048684;28;19920;-53
2022/11/21 02:55:20;;;;;;;;;;;2.00;99.90;;;;;;5049707;28;20388;-49
2022/11/21 02:57:46;;;;;;;;;;;2.10;99.90;;;;;;5050041;28;19913;-54
2022/11/21 03:00:11;;;;;;;;;;;2.00;99.90;;;;;;5049927;28;20011;-50
2022/11/21 03:02:37;;;;;;;;;;;2.10;99.90;;;;;;5049014;28;20290;-50
2022/11/21 03:05:06;;;;;;;;;;;2.10;99.90;;;;;;5049112;28;20003;-53
2022/11/21 03:07:31;;;;;;;;;;;2.10;99.90;;;;;;5050121;28;19924;-49
2022/11/21 03:09:56;;;;;;;;;;;2.10;99.90;;;;;;5048998;28;19916;-48
2022/11/21 03:12:22;;;;;;;;;;;2.10;99.90;;;;;;5049827;28;19909;-48
2022/11/21 03:14:47;;;;;;;;;;;2.20;99.90;;;;;;5049142;28;19971;-54
2022/11/21 03:17:13;;;;;;;;;;;2.20;99.90;;;;;;5049778;28;20007;-48
2022/11/21 03:19:38;;;;;;;;;;;2.20;99.90;;;;;;5049826;28;19913;-50
2022/11/21 03:22:04;;;;;;;;;;;2.30;99.90;;;;;;5049708;28;20015;-56
2022/11/21 03:24:29;;;;;;;;;;;2.30;99.90;;;;;;5049589;28;19939;-51
2022/11/21 03:26:55;;;;;;;;;;;2.30;99.90;;;;;;5049127;28;19924;-48
2022/11/21 03:29:20;;;;;;;;;;;2.30;99.90;;;;;;5049517;28;20112;-48
2022/11/21 03:31:46;;;;;;;;;;;2.40;99.90;;;;;;5049336;28;20354;-48
2022/11/21 03:34:11;;;;;;;;;;;2.40;99.90;;;;;;5047958;28;19924;-49
2022/11/21 03:36:37;;;;;;;;;;;2.40;99.90;;;;;;5048457;28;20007;-51
2022/11/21 03:39:03;;;;;;;;;;;2.40;99.90;;;;;;5049292;28;19916;-48
2022/11/21 03:41:28;;;;;;;;;;;2.40;99.90;;;;;;5049393;28;19908;-57
2022/11/21 03:44:07;;;;;;;;;;;2.40;99.90;;;;;;5049291;28;19962;-52
2022/11/21 03:46:35;;;;;;;;;;;2.40;99.90;;;;;;5048759;28;19919;-52
2022/11/21 03:49:00;;;;;;;;;;;2.40;99.90;;;;;;5049129;28;19912;-53
2022/11/21 03:51:26;;;;;;;;;;;2.50;99.90;;;;;;5048421;28;19917;-52
2022/11/21 03:53:51;;;;;;;;;;;2.50;99.90;;;;;;5048524;28;20427;-54
2022/11/21 03:56:17;;;;;;;;;;;2.50;99.90;;;;;;5048519;28;20430;-53
2022/11/21 03:58:43;;;;;;;;;;;2.60;99.90;;;;;;5045989;28;19920;-49
2022/11/21 04:01:09;;;;;;;;;;;2.60;99.90;;;;;;5049081;28;19913;-51
2022/11/21 04:03:34;;;;;;;;;;;2.60;99.90;;;;;;5047719;28;19952;-48
2022/11/21 04:06:00;;;;;;;;;;;2.60;99.90;;;;;;5048108;28;19989;-49
2022/11/21 04:08:26;;;;;;;;;;;2.60;99.90;;;;;;5048891;28;19912;-47
2022/11/21 04:10:52;;;;;;;;;;;2.70;99.90;;;;;;5049009;28;19936;-52
2022/11/21 04:13:18;;;;;;;;;;;2.70;99.90;;;;;;5048941;28;20247;-49
2022/11/21 04:15:44;;;;;;;;;;;2.70;99.90;;;;;;5048069;28;20520;-49
2022/11/21 04:18:09;;;;;;;;;;;2.80;99.90;;;;;;5048816;28;19909;-50
2022/11/21 04:20:35;;;;;;;;;;;2.80;99.90;;;;;;5048683;28;20291;-49
2022/11/21 04:23:00;;;;;;;;;;;2.70;99.90;;;;;;5049137;28;20382;-54
2022/11/21 04:25:26;;;;;;;;;;;2.80;99.90;;;;;;5047229;28;20270;-49
2022/11/21 04:27:55;;;;;;;;;;;2.80;99.90;;;;;;5046958;28;20007;-47
2022/11/21 04:30:20;;;;;;;;;;;2.80;99.90;;;;;;5047933;28;19912;-57
2022/11/21 04:32:48;;;;;;;;;;;2.80;99.90;;;;;;5048366;28;19932;-48
2022/11/21 04:35:13;;;;;;;;;;;2.90;99.90;;;;;;5048016;28;20287;-52
2022/11/21 04:37:39;;;;;;;;;;;2.90;99.90;;;;;;5048769;28;19919;-53
2022/11/21 04:40:04;;;;;;;;;;;2.80;99.90;;;;;;5048730;28;19993;-52
2022/11/21 04:42:30;;;;;;;;;;;2.90;99.90;;;;;;5048687;28;20247;-56
2022/11/21 04:44:55;;;;;;;;;;;2.90;99.90;;;;;;5048212;28;19967;-50
2022/11/21 04:47:21;;;;;;;;;;;2.90;99.90;;;;;;5052390;28;19921;-48
2022/11/21 04:49:46;;;;;;;;;;;2.90;99.90;;;;;;5052395;28;19959;-54
2022/11/21 04:52:12;;;;;;;;;;;2.90;99.90;;;;;;5052655;28;19940;-52
2022/11/21 04:54:37;;;;;;;;;;;3.00;99.90;;;;;;5051554;28;20393;-53
2022/11/21 04:57:03;;;;;;;;;;;2.90;99.90;;;;;;5052052;28;19919;-49
2022/11/21 04:59:28;;;;;;;;;;;2.90;99.90;;;;;;5065984;28;19916;-49
2022/11/21 05:01:54;;;;;;;;;;;2.80;99.90;;;;;;5051532;28;19912;-49
2022/11/21 05:04:19;;;;;;;;;;;2.90;99.90;;;;;;5050868;28;19912;-48
2022/11/21 05:06:45;;;;;;;;;;;2.90;99.90;;;;;;5051522;28;19948;-57
2022/11/21 05:09:10;;;;;;;;;;;2.80;99.90;;;;;;5052514;28;19939;-48
2022/11/21 05:14:20;;;;;;;;;;;2.80;99.90;;;;;;5044577;28;19924;-49
2022/11/21 05:16:45;;;;;;;;;;;2.80;99.90;;;;;;5049762;28;19916;-51
2022/11/21 05:19:11;;;;;;;;;;;2.80;99.90;;;;;;5043482;28;19941;-48
2022/11/21 05:21:36;;;;;;;;;;;2.80;99.90;;;;;;5043633;28;20306;-52
2022/11/21 05:24:02;;;;;;;;;;;2.80;99.90;;;;;;5043052;28;19959;-49
2022/11/21 05:26:27;;;;;;;;;;;2.80;99.90;;;;;;5042583;28;20174;-57
2022/11/21 05:28:53;;;;;;;;;;;2.80;99.90;;;;;;5041277;28;19923;-51
2022/11/21 05:31:18;;;;;;;;;;;2.80;99.90;;;;;;5042092;28;19921;-54
2022/11/21 05:33:44;;;;;;;;;;;2.80;99.90;;;;;;5042576;28;19929;-52
2022/11/21 05:36:09;;;;;;;;;;;2.80;99.90;;;;;;5045671;28;19960;-51
2022/11/21 05:38:34;;;;;;;;;;;2.80;99.90;;;;;;5050357;28;19919;-49
2022/11/21 05:41:00;;;;;;;;;;;2.80;99.90;;;;;;5050065;28;19917;-48
2022/11/21 05:46:10;;;;;;;;;;;2.90;99.90;;;;;;5051405;28;19916;-53
2022/11/21 05:48:36;;;;;;;;;;;2.90;99.90;;;;;;5051669;28;19913;-48
2022/11/21 05:51:02;;;;;;;;;;;2.90;99.90;;;;;;5051083;28;19942;-52
2022/11/21 05:53:27;;;;;;;;;;;3.00;99.90;;;;;;5051594;28;20362;-48
2022/11/21 05:55:53;;;;;;;;;;;3.00;99.90;;;;;;5051328;28;20007;-50
2022/11/21 05:58:18;;;;;;;;;;;3.00;99.90;;;;;;5050517;28;19913;-52
2022/11/21 06:00:44;;;;;;;;;;;3.00;99.90;;;;;;5051100;28;19960;-53
2022/11/21 06:03:31;;;;;;;;;;;3.00;99.90;;;;;;5051196;28;20367;-50
2022/11/21 06:05:59;;;;;;;;;;;3.10;99.90;;;;;;5050933;28;19909;-50
2022/11/21 06:08:25;;;;;;;;;;;3.10;99.90;;;;;;5051203;28;19963;-53
2022/11/21 06:10:51;;;;;;;;;;;3.10;99.90;;;;;;5051312;28;19917;-50
2022/11/21 06:13:22;;;;;;;;;;;3.10;99.90;;;;;;5050958;28;19916;-51
2022/11/21 06:15:47;;;;;;;;;;;3.10;99.90;;;;;;5050980;28;19909;-52
2022/11/21 06:18:13;;;;;;;;;;;3.10;99.90;;;;;;5051081;28;19966;-47
2022/11/21 06:20:38;;;;;;;;;;;3.10;99.90;;;;;;5050947;28;19958;-49
2022/11/21 06:23:04;;;;;;;;;;;3.10;99.90;;;;;;5049465;28;19962;-50
2022/11/21 06:25:29;;;;;;;;;;;3.10;99.90;;;;;;5051051;28;20425;-52
2022/11/21 06:27:55;;;;;;;;;;;3.10;99.90;;;;;;5051109;28;19921;-51
2022/11/21 06:30:20;;;;;;;;;;;3.10;99.90;;;;;;5050848;28;19913;-54
2022/11/21 06:32:46;;;;;;;;;;;3.10;99.90;;;;;;5050896;28;20356;-50
2022/11/21 06:35:11;;;;;;;;;;;3.20;99.90;;;;;;5051250;28;19915;-48
2022/11/21 06:37:37;;;;;;;;;;;3.10;99.90;;;;;;5050658;28;19977;-52
2022/11/21 06:40:03;;;;;;;;;;;3.10;99.90;;;;;;5050501;28;19939;-48
2022/11/21 06:42:28;;;;;;;;;;;3.10;99.90;;;;;;5050816;28;20310;-52
2022/11/21 06:44:54;;;;;;;;;;;3.00;99.90;;;;;;5049905;28;19912;-51
2022/11/21 06:47:19;;;;;;;;;;;3.00;99.90;;;;;;5050351;28;19939;-49
2022/11/21 06:49:45;;;;;;;;;;;3.00;99.90;;;;;;5050659;28;19955;-51
2022/11/21 06:52:11;;;;;;;;;;;3.00;99.90;;;;;;5050307;28;19917;-52
2022/11/21 06:54:37;;;;;;;;;;;3.00;99.90;;;;;;5050289;28;19917;-48
2022/11/21 06:57:02;;;;;;;;;;;3.00;99.90;;;;;;5050197;28;19939;-48
2022/11/21 06:59:28;;;;;;;;;;;3.00;99.90;;;;;;5050213;28;19909;-47
2022/11/21 07:01:53;;;;;;;;;;;3.00;99.90;;;;;;5050065;28;19948;-53
2022/11/21 07:04:19;;;;;;;;;;;2.90;99.90;;;;;;5050152;28;19909;-50
2022/11/21 07:06:44;;;;;;;;;;;2.90;99.90;;;;;;5049827;28;19913;-52
2022/11/21 07:09:10;;;;;;;;;;;3.00;99.90;;;;;;5050463;28;19912;-50
2022/11/21 07:11:35;;;;;;;;;;;3.00;99.90;;;;;;5050086;28;19913;-52
2022/11/21 07:14:00;;;;;;;;;;;2.90;99.90;;;;;;5049911;28;19986;-56
2022/11/21 07:16:29;;;;;;;;;;;3.00;99.90;;;;;;5049814;28;19912;-51
2022/11/21 07:18:55;;;;;;;;;;;3.00;99.90;;;;;;5050003;28;19962;-52
2022/11/21 07:21:20;;;;;;;;;;;3.00;99.90;;;;;;5049738;28;19917;-51
2022/11/21 07:23:46;;;;;;;;;;;3.00;99.90;;;;;;5049791;28;19912;-52
2022/11/21 07:26:12;;;;;;;;;;;3.00;99.90;;;;;;5049573;28;19962;-49
2022/11/21 07:28:37;;;;;;;;;;;3.00;99.90;;;;;;5049605;28;19912;-47
2022/11/21 07:31:03;;;;;;;;;;;3.00;99.90;;;;;;5049398;28;19931;-58
2022/11/21 07:33:28;;;;;;;;;;;3.00;99.90;;;;;;5049543;28;19977;-52
2022/11/21 07:35:55;;;;;;;;;;;3.10;99.90;;;;;;5049525;28;20335;-58
2022/11/21 07:38:20;;;;;;;;;;;3.00;99.90;;;;;;5049510;28;19913;-48
2022/11/21 07:40:46;;;;;;;;;;;3.00;99.90;;;;;;5049594;28;19920;-51
2022/11/21 07:43:11;;;;;;;;;;;3.00;99.90;;;;;;5049312;28;19920;-51
2022/11/21 07:45:37;;;;;;;;;;;2.90;99.90;;;;;;5049438;28;19921;-57
2022/11/21 07:48:04;;;;;;;;;;;2.80;99.90;;;;;;5049315;28;20374;-49
2022/11/21 07:50:29;;;;;;;;;;;2.80;99.90;;;;;;5048444;28;19974;-52
2022/11/21 07:52:59;;;;;;;;;;;2.70;99.90;;;;;;5049525;28;20182;-54
2022/11/21 07:55:25;;;;;;;;;;;2.70;99.90;;;;;;5049224;28;19948;-50
2022/11/21 07:58:00;;;;;;;;;;;2.60;99.90;;;;;;5049426;28;20005;-51
2022/11/21 08:00:26;;;;;;;;;;;2.70;99.90;;;;;;5049189;28;19913;-49
2022/11/21 08:02:52;;;;;;;;;;;2.50;99.90;;;;;;5047524;28;19920;-51
2022/11/21 08:05:18;;;;;;;;;;;2.50;99.90;;;;;;5048956;28;19909;-54
2022/11/21 08:07:43;;;;;;;;;;;2.50;99.90;;;;;;5048929;28;19915;-53
2022/11/21 08:10:08;;;;;;;;;;;2.50;99.90;;;;;;5048979;28;19955;-50
2022/11/21 08:12:34;;;;;;;;;;;2.30;99.90;;;;;;5048967;28;20382;-54
2022/11/21 08:14:59;;;;;;;;;;;2.20;99.90;;;;;;5049146;28;19917;-52
2022/11/21 08:17:25;;;;;;;;;;;2.10;99.90;;;;;;5049217;28;20049;-50
2022/11/21 08:19:51;;;;;;;;;;;2.00;99.90;;;;;;5048708;28;20046;-47
2022/11/21 08:22:16;;;;;;;;;;;2.00;99.90;;;;;;5049196;28;19916;-48
2022/11/21 08:24:42;;;;;;;;;;;1.90;99.90;;;;;;5049014;28;19913;-49
2022/11/21 08:27:07;;;;;;;;;;;1.80;99.90;;;;;;5048798;28;19924;-52
2022/11/21 08:29:33;;;;;;;;;;;1.80;99.90;;;;;;5048763;28;19912;-51
2022/11/21 08:31:58;;;;;;;;;;;1.70;99.90;;;;;;5048697;28;20413;-49
2022/11/21 08:34:24;;;;;;;;;;;1.60;99.90;;;;;;5048593;28;19927;-54
2022/11/21 08:36:49;;;;;;;;;;;1.50;99.90;;;;;;5048844;28;19920;-49
2022/11/21 08:39:14;;;;;;;;;;;1.40;99.90;;;;;;5048548;28;20003;-51
2022/11/21 08:44:24;;;;;;;;;;;1.50;99.90;;;;;;5048747;28;19916;-53
2022/11/21 08:46:50;;;;;;;;;;;1.40;99.90;;;;;;5048842;28;19913;-52
2022/11/21 08:49:15;;;;;;;;;;;1.40;99.90;;;;;;5048832;28;19940;-50
2022/11/21 08:51:41;;;;;;;;;;;1.40;99.90;;;;;;5048604;28;20046;-55
2022/11/21 08:54:08;;;;;;;;;;;1.30;99.90;;;;;;5048499;28;19916;-53
2022/11/21 08:56:33;;;;;;;;;;;1.20;99.90;;;;;;5048809;28;19908;-49
2022/11/21 08:58:59;;;;;;;;;;;1.20;99.90;;;;;;5048474;28;19916;-53
2022/11/21 09:01:24;;;;;;;;;;;1.20;99.90;;;;;;5048491;28;19916;-54
2022/11/21 09:03:50;;;;;;;;;;;1.20;99.90;;;;;;5048187;28;19912;-50
2022/11/21 09:06:15;;;;;;;;;;;1.10;99.90;;;;;;5048418;28;20143;-52
2022/11/21 09:08:41;;;;;;;;;;;1.10;99.90;;;;;;5048278;28;19917;-52
2022/11/21 09:11:08;;;;;;;;;;;1.10;99.90;;;;;;5048497;28;19912;-50
2022/11/21 09:13:33;;;;;;;;;;;1.00;99.90;;;;;;5048413;28;20015;-52
2022/11/21 09:18:43;;;;;;;;;;;1.10;99.90;;;;;;5048792;28;19919;-53
2022/11/21 09:21:15;;;;;;;;;;;1.10;99.90;;;;;;5048529;28;20263;-58
2022/11/21 09:23:41;;;;;;;;;;;1.10;99.90;;;;;;5048191;28;20007;-51
2022/11/21 09:26:06;;;;;;;;;;;1.00;99.90;;;;;;5048382;28;20038;-52
2022/11/21 09:28:32;;;;;;;;;;;1.10;99.90;;;;;;5048203;28;20335;-51
2022/11/21 09:30:57;;;;;;;;;;;1.00;99.90;;;;;;5048026;28;20341;-53
2022/11/21 09:33:23;;;;;;;;;;;1.00;99.90;;;;;;5050969;28;19928;-50
2022/11/21 09:35:48;;;;;;;;;;;1.10;99.90;;;;;;5051893;28;20494;-52
2022/11/21 09:38:13;;;;;;;;;;;1.10;99.90;;;;;;5051945;28;19913;-54
2022/11/21 09:40:42;;;;;;;;;;;1.10;99.90;;;;;;5051742;28;19944;-52
2022/11/21 09:43:17;;;;;;;;;;;1.10;99.90;;;;;;5051701;28;19987;-53
2022/11/21 09:45:47;;;;;;;;;;;1.10;99.90;;;;;;5051571;28;20439;-50
2022/11/21 09:48:14;;;;;;;;;;;1.00;99.90;;;;;;5051502;28;19913;-50
2022/11/21 09:50:52;;;;;;;;;;;1.00;99.90;;;;;;5051460;28;19921;-49
2022/11/21 09:53:19;;;;;;;;;;;1.00;99.90;;;;;;5052088;28;19917;-50
2022/11/21 09:56:04;;;;;;;;;;;1.00;99.90;;;;;;5051849;28;19935;-51
2022/11/21 09:58:38;;;;;;;;;;;1.00;99.90;;;;;;5051329;28;19909;-49
2022/11/21 10:01:04;;;;;;;;;;;1.10;99.90;;;;;;5051639;28;19912;-53
2022/11/21 10:03:31;;;;;;;;;;;1.10;99.90;;;;;;5051228;28;19913;-49
2022/11/21 10:05:59;;;;;;;;;;;1.10;99.90;;;;;;5051320;28;19912;-49
2022/11/21 10:08:34;;;;;;;;;;;1.10;99.90;;;;;;5051079;28;20385;-55
2022/11/21 10:11:07;;;;;;;;;;;1.10;99.90;;;;;;5051424;28;20351;-54
2022/11/21 10:13:45;;;;;;;;;;;1.10;99.90;;;;;;5050016;28;19928;-51
2022/11/21 10:16:17;;;;;;;;;;;1.10;99.90;;;;;;5051454;28;19913;-53
2022/11/21 10:18:48;;;;;;;;;;;1.20;99.90;;;;;;5051030;28;19967;-54
2022/11/21 10:21:20;;;;;;;;;;;1.20;99.90;;;;;;5050933;28;19909;-54
2022/11/21 10:24:09;;;;;;;;;;;1.10;99.90;;;;;;5051351;28;19916;-54
2022/11/21 10:26:44;;;;;;;;;;;1.10;99.90;;;;;;5050968;28;19942;-54
2022/11/21 10:29:09;;;;;;;;;;;1.10;99.90;;;;;;5049409;28;19909;-54
2022/11/21 10:31:36;;;;;;;;;;;1.10;99.90;;;;;;5050539;28;19917;-53
2022/11/21 10:34:02;;;;;;;;;;;1.20;99.90;;;;;;5050668;28;20329;-55
2022/11/21 10:36:38;;;;;;;;;;;1.20;99.90;;;;;;5050727;28;20020;-56
2022/11/21 10:39:24;;;;;;;;;;;1.20;99.90;;;;;;5050611;28;19908;-51
2022/11/21 10:41:55;;;;;;;;;;;1.20;99.90;;;;;;5046517;28;20030;-55
2022/11/21 10:47:13;;;;;;;;;;;1.20;99.90;;;;;;5050556;28;20311;-55
2022/11/21 10:49:39;;;;;;;;;;;1.20;99.90;;;;;;5050527;28;20007;-54
2022/11/21 10:52:14;;;;;;;;;;;1.20;99.90;;;;;;5050441;28;20046;-55
2022/11/21 10:54:58;;;;;;;;;;;1.30;99.90;;;;;;5050463;28;19913;-52
2022/11/21 10:57:27;;;;;;;;;;;1.40;99.90;;;;;;5050298;28;19913;-55
2022/11/21 10:59:58;;;;;;;;;;;1.40;99.90;;;;;;5050298;28;19913;-52
2022/11/21 11:02:24;;;;;;;;;;;1.50;99.90;;;;;;5048811;28;19920;-55
2022/11/21 11:05:09;;;;;;;;;;;1.40;99.90;;;;;;5050025;28;19909;-52
2022/11/21 11:07:35;;;;;;;;;;;1.50;99.90;;;;;;5038994;28;19912;-55
2022/11/21 11:10:19;;;;;;;;;;;1.50;99.90;;;;;;5050004;28;20355;-54
2022/11/21 11:15:31;;;;;;;;;;;1.50;99.90;;;;;;5050461;28;20278;-54
2022/11/21 11:17:59;;;;;;;;;;;1.50;99.90;;;;;;5049873;28;19913;-55
2022/11/21 11:20:27;;;;;;;;;;;1.60;99.90;;;;;;5049893;28;20307;-54
2022/11/21 11:22:53;;;;;;;;;;;1.70;99.90;;;;;;5049670;28;20310;-54
2022/11/21 11:25:18;;;;;;;;;;;1.80;99.90;;;;;;5049752;28;19913;-53
2022/11/21 11:27:44;;;;;;;;;;;1.80;99.90;;;;;;5049664;28;20313;-56
2022/11/21 11:30:16;;;;;;;;;;;1.90;99.90;;;;;;5049756;28;20012;-56
2022/11/21 11:32:42;;;;;;;;;;;1.90;99.90;;;;;;5049634;28;20382;-50
2022/11/21 11:35:07;;;;;;;;;;;1.90;99.90;;;;;;5049605;28;19932;-54
2022/11/21 11:37:48;;;;;;;;;;;2.00;99.90;;;;;;5049567;28;19916;-52
2022/11/21 11:40:20;;;;;;;;;;;2.00;99.90;;;;;;5049682;28;19908;-49
2022/11/21 11:48:45;;;;;;;;;;;2.20;99.90;;;;;;5049462;28;19971;-54
2022/11/21 11:51:20;;;;;;;;;;;2.40;99.90;;;;;;5049470;28;19917;-53
2022/11/21 11:53:49;;;;;;;;;;;2.50;99.90;;;;;;5049324;28;19920;-53
2022/11/21 11:56:20;;;;;;;;;;;2.50;99.90;;;;;;5048706;28;19980;-50
2022/11/21 11:58:55;;;;;;;;;;;2.60;99.90;;;;;;5048995;28;20164;-53
2022/11/21 12:01:24;;;;;;;;;;;2.60;99.90;;;;;;5049166;28;19913;-52
2022/11/21 12:03:56;;;;;;;;;;;2.60;99.90;;;;;;5049099;28;19920;-50
2022/11/21 12:06:24;;;;;;;;;;;2.60;99.90;;;;;;5049508;28;20412;-53
2022/11/21 12:08:53;;;;;;;;;;;2.70;99.90;;;;;;5048974;28;19919;-49
2022/11/21 12:17:20;;;;;;;;;;;2.60;99.90;;;;;;5036420;28;21204;-52
2022/11/21 12:19:46;;;;;;;;;;;2.60;99.90;;;;;;5048969;28;20275;-55
2022/11/21 12:22:12;;;;;;;;;;;2.60;99.90;;;;;;5049176;28;20321;-51
2022/11/21 12:24:38;;;;;;;;;;;2.60;99.90;;;;;;5049062;28;19909;-52
2022/11/21 12:27:06;;;;;;;;;;;2.60;99.90;;;;;;5049226;28;20038;-50
2022/11/21 12:29:41;;;;;;;;;;;2.60;99.90;;;;;;5048767;28;19920;-54
2022/11/21 12:32:15;;;;;;;;;;;2.60;99.90;;;;;;5048744;28;19921;-55
2022/11/21 12:34:49;;;;;;;;;;;2.60;99.90;;;;;;5049044;28;20369;-53
2022/11/21 12:37:15;;;;;;;;;;;2.60;99.90;;;;;;5048997;28;20359;-53
2022/11/21 12:39:43;;;;;;;;;;;2.50;99.90;;;;;;5048583;28;19948;-54
2022/11/21 12:42:49;;;;;;;;;;;2.60;99.90;;;;;;5048942;28;19985;-51
2022/11/21 12:45:26;;;;;;;;;;;2.50;99.90;;;;;;5048807;28;20414;-49
2022/11/21 12:56:50;;;;;;;;;;;2.50;99.90;;;;;;5048803;28;20397;-56
2022/11/21 12:59:17;;;;;;;;;;;2.40;99.90;;;;;;5047458;28;20004;-53
2022/11/21 13:01:50;;;;;;;;;;;2.50;99.90;;;;;;5048574;28;19931;-56
2022/11/21 13:04:20;;;;;;;;;;;2.50;99.90;;;;;;5035769;28;19913;-60
2022/11/21 13:06:47;;;;;;;;;;;2.50;99.90;;;;;;5051219;28;19909;-54
2022/11/21 13:09:18;;;;;;;;;;;2.50;99.90;;;;;;5052524;28;19987;-55
2022/11/21 13:11:58;;;;;;;;;;;2.40;99.90;;;;;;5052352;28;19913;-56
2022/11/21 13:14:35;;;;;;;;;;;2.40;99.90;;;;;;5052342;28;20306;-56
2022/11/21 13:17:19;;;;;;;;;;;2.40;99.90;;;;;;5052405;28;19923;-49
2022/11/21 13:19:59;;;;;;;;;;;2.40;99.90;;;;;;5052759;28;20364;-53
2022/11/21 13:22:37;;;;;;;;;;;2.40;99.90;;;;;;5052283;28;19912;-55
2022/11/21 13:25:02;;;;;;;;;;;2.50;99.90;;;;;;5052234;28;20302;-52
2022/11/21 13:27:28;;;;;;;;;;;2.50;99.90;;;;;;5052282;28;19916;-53
2022/11/21 13:30:05;;;;;;;;;;;2.50;99.90;;;;;;5051944;28;19916;-55
2022/11/21 13:32:40;;;;;;;;;;;2.50;99.90;;;;;;5051976;28;20449;-54
2022/11/21 13:35:18;;;;;;;;;;;2.50;99.90;;;;;;5050646;28;20332;-52
2022/11/21 13:38:03;;;;;;;;;;;2.50;99.90;;;;;;5052331;28;19913;-59
2022/11/21 13:40:29;;;;;;;;;;;2.50;99.90;;;;;;5052075;28;20027;-51
2022/11/21 13:43:22;;;;;;;;;;;2.50;99.90;;;;;;5051849;28;20450;-51
2022/11/21 13:45:49;;;;;;;;;;;2.50;99.90;;;;;;5051566;28;20337;-53
2022/11/21 13:48:27;;;;;;;;;;;2.60;99.90;;;;;;5051684;28;19915;-54
2022/11/21 13:51:11;;;;;;;;;;;2.60;99.90;;;;;;5051683;28;19956;-51
2022/11/21 13:53:55;;;;;;;;;;;2.60;99.90;;;;;;5052347;28;19982;-54
2022/11/21 13:56:27;;;;;;;;;;;2.60;99.90;;;;;;5054342;28;19913;-55
2022/11/21 13:59:02;;;;;;;;;;;2.60;99.90;;;;;;5051964;28;20422;-52
2022/11/21 14:01:30;;;;;;;;;;;2.60;99.90;;;;;;5051888;28;19917;-57
2022/11/21 14:04:05;;;;;;;;;;;2.60;99.90;;;;;;5051374;28;20039;-53
2022/11/21 14:06:36;;;;;;;;;;;2.70;99.90;;;;;;5051050;28;19917;-52
2022/11/21 14:09:17;;;;;;;;;;;2.70;99.90;;;;;;5051184;28;19913;-55
2022/11/21 14:11:48;;;;;;;;;;;2.70;99.90;;;;;;5051386;28;20298;-55
2022/11/21 14:14:23;;;;;;;;;;;2.60;99.90;;;;;;5051256;28;19913;-54
2022/11/21 14:16:51;;;;;;;;;;;2.60;99.90;;;;;;5050978;28;20245;-54
2022/11/21 14:19:17;;;;;;;;;;;2.40;99.90;;;;;;5050367;28;19958;-54
2022/11/21 14:21:44;;;;;;;;;;;2.30;99.90;;;;;;5050925;28;20372;-51
2022/11/21 14:24:17;;;;;;;;;;;2.20;99.90;;;;;;5049701;28;19916;-51
2022/11/21 14:26:44;;;;;;;;;;;2.10;99.90;;;;;;5050950;28;19966;-56
2022/11/21 14:29:33;;;;;;;;;;;2.00;99.90;;;;;;5051186;28;19909;-58
2022/11/21 14:31:58;;;;;;;;;;;1.90;99.90;;;;;;5050851;28;20398;-55
2022/11/21 14:34:25;;;;;;;;;;;1.90;99.90;;;;;;5051004;28;19925;-51
2022/11/21 14:36:50;;;;;;;;;;;2.00;99.90;;;;;;5050862;28;20354;-54
2022/11/21 14:39:16;;;;;;;;;;;2.00;99.90;;;;;;5051610;28;19971;-54
2022/11/21 14:41:43;;;;;;;;;;;2.00;99.90;;;;;;5050600;28;19923;-54
2022/11/21 14:44:09;;;;;;;;;;;2.10;99.90;;;;;;5050943;28;19979;-52
2022/11/21 14:46:34;;;;;;;;;;;2.10;99.90;;;;;;5050402;28;19920;-54
2022/11/21 14:49:09;;;;;;;;;;;2.10;99.90;;;;;;5050701;28;19960;-52
2022/11/21 14:51:34;;;;;;;;;;;2.10;99.90;;;;;;5050394;28;20008;-56
2022/11/21 14:54:01;;;;;;;;;;;2.10;99.90;;;;;;5050507;28;20473;-53
2022/11/21 14:56:30;;;;;;;;;;;2.20;99.90;;;;;;5050433;28;19913;-53
2022/11/21 14:58:58;;;;;;;;;;;2.10;99.90;;;;;;5050294;28;20321;-57
2022/11/21 15:01:27;;;;;;;;;;;2.10;99.90;;;;;;5050014;28;19913;-52
2022/11/21 15:04:00;;;;;;;;;;;2.10;99.90;;;;;;5050062;28;19908;-55
2022/11/21 15:06:28;;;;;;;;;;;2.00;99.90;;;;;;5050578;28;19916;-52
2022/11/21 15:08:55;;;;;;;;;;;2.00;99.90;;;;;;5050173;28;19920;-53
2022/11/21 15:11:27;;;;;;;;;;;1.90;99.90;;;;;;5050041;28;19920;-53
2022/11/21 15:13:56;;;;;;;;;;;1.90;99.90;;;;;;5050013;28;19955;-54